Time;durP1;ratioP1;P1;durP2;ratioP2;P2;SDS_P1;SDS_P2;PMS_P1;PMS_P2;Temp;Humidity;BMP_temperature;BMP_pressure;BME280_temperature;BME280_humidity;BME280_pressure;Samples;Min_cycle;Max_cycle;Signal;HPM_P1;HPM_P2
2023/01/10 02:12:07;;;;;;;41.83;17.48;;;;;;;8.58;86.05;100618.97;4990938;28;20170;-93
2023/01/10 02:14:56;;;;;;;40.78;18.55;;;;;;;8.72;85.57;100633.72;4941214;29;20031;-89
2023/01/10 04:40:31;;;;;;;47.58;20.20;;;;;;;9.00;85.29;100553.25;5015950;28;20050;-92
2023/01/10 04:43:19;;;;;;;49.10;21.20;;;;;;;8.88;85.51;100539.25;5000169;28;20046;-92
2023/01/10 05:24:55;;;;;;;38.25;16.52;;;;;;;9.07;80.10;100549.78;4999606;28;20455;-87
2023/01/10 05:27:49;;;;;;;35.97;16.88;;;;;;;9.17;80.11;100556.91;4971024;28;20049;-91
2023/01/10 05:30:15;;;;;;;38.42;16.15;;;;;;;9.17;79.63;100554.25;5004727;28;20121;-85
2023/01/10 05:32:41;;;;;;;37.05;17.35;;;;;;;9.11;79.40;100528.03;4989675;28;20049;-87
2023/01/10 05:35:09;;;;;;;35.95;16.95;;;;;;;9.29;79.08;100553.00;4961451;28;20058;-87
2023/01/10 05:37:58;;;;;;;36.25;17.05;;;;;;;9.38;79.32;100559.28;5001376;28;20054;-86
2023/01/10 05:40:29;;;;;;;35.47;15.75;;;;;;;9.44;78.14;100562.19;4965536;28;20043;-85
2023/01/10 05:42:56;;;;;;;27.45;14.65;;;;;;;9.52;77.28;100564.09;4984754;28;20110;-88
2023/01/10 05:45:23;;;;;;;33.10;15.82;;;;;;;9.35;77.31;100536.28;4954331;28;20027;-88
2023/01/10 05:48:09;;;;;;;32.70;14.73;;;;;;;9.41;76.44;100541.03;5001679;28;20057;-87
2023/01/10 05:50:36;;;;;;;34.20;15.10;;;;;;;9.35;76.67;100536.28;4967566;28;20654;-87
2023/01/10 05:53:07;;;;;;;32.25;15.20;;;;;;;9.40;76.69;100563.50;4966601;28;20077;-88
2023/01/10 05:55:35;;;;;;;26.58;14.90;;;;;;;9.43;76.74;100547.06;4983902;28;20042;-87
2023/01/10 05:58:24;;;;;;;37.38;15.20;;;;;;;9.60;76.14;100565.97;4968707;28;20034;-87
2023/01/10 06:04:14;;;;;;;32.67;14.90;;;;;;;9.52;76.21;100570.28;5007608;28;20099;-87
2023/01/10 06:06:46;;;;;;;31.27;14.45;;;;;;;9.55;76.44;100558.38;4984761;28;20104;-85
2023/01/10 06:09:13;;;;;;;31.67;14.82;;;;;;;9.58;75.89;100547.38;4973845;28;20057;-85
2023/01/10 06:11:51;;;;;;;29.52;13.23;;;;;;;9.46;75.36;100528.00;4970772;28;20050;-86
2023/01/10 06:14:21;;;;;;;29.98;14.98;;;;;;;9.68;75.46;100552.63;4982742;28;20046;-86
2023/01/10 06:16:50;;;;;;;30.75;13.90;;;;;;;9.60;75.10;100548.06;5010088;28;20061;-87
2023/01/10 06:19:18;;;;;;;29.90;12.82;;;;;;;9.49;74.05;100527.66;5002037;28;20151;-87
2023/01/10 06:22:18;;;;;;;32.75;14.15;;;;;;;9.72;74.25;100570.94;4985335;28;20046;-87
2023/01/10 06:24:46;;;;;;;33.95;13.88;;;;;;;9.66;74.42;100573.41;4995625;28;20076;-86
2023/01/10 06:27:21;;;;;;;32.75;14.00;;;;;;;9.60;74.02;100539.13;5005385;28;20046;-87
2023/01/10 06:33:13;;;;;;;25.17;13.25;;;;;;;9.58;73.71;100562.63;4994069;28;20125;-89
2023/01/10 06:35:39;;;;;;;28.48;12.85;;;;;;;9.62;73.26;100547.88;4966239;28;20039;-86
2023/01/10 06:38:08;;;;;;;30.30;13.38;;;;;;;9.65;73.71;100577.09;4965654;28;20060;-87
2023/01/10 06:40:42;;;;;;;28.00;13.00;;;;;;;9.52;73.27;100559.56;4983280;28;20113;-85
2023/01/10 06:43:10;;;;;;;26.50;12.98;;;;;;;9.61;73.05;100570.34;4987604;28;20483;-87
2023/01/10 06:45:42;;;;;;;30.35;13.20;;;;;;;9.51;73.27;100573.97;4987290;28;20121;-90
2023/01/10 06:48:09;;;;;;;27.48;12.77;;;;;;;9.49;73.12;100562.56;5002315;28;20054;-86
2023/01/10 06:50:35;;;;;;;30.02;13.23;;;;;;;9.63;72.13;100573.72;4979349;28;20101;-85
2023/01/10 06:53:06;;;;;;;23.88;12.68;;;;;;;9.61;72.76;100551.56;4967270;28;20034;-85
2023/01/10 06:55:34;;;;;;;30.80;13.52;;;;;;;9.70;72.52;100561.38;4962538;28;20418;-85
2023/01/10 06:58:05;;;;;;;29.02;13.90;;;;;;;9.87;72.53;100581.09;4980584;28;20038;-89
2023/01/10 07:00:49;;;;;;;29.45;14.00;;;;;;;9.76;73.05;100560.72;4988543;28;20098;-90
2023/01/10 07:03:26;;;;;;;34.80;13.93;;;;;;;9.63;73.34;100545.03;4999130;28;20062;-90
2023/01/10 07:05:59;;;;;;;28.33;13.15;;;;;;;9.56;73.89;100545.84;4992381;28;20046;-90
2023/01/10 07:08:30;;;;;;;25.80;13.75;;;;;;;9.48;74.63;100562.69;5011276;28;20026;-89
2023/01/10 07:10:59;;;;;;;33.28;14.18;;;;;;;9.55;74.95;100584.38;4989200;28;20049;-89
2023/01/10 07:13:39;;;;;;;33.35;13.25;;;;;;;9.53;75.51;100587.25;4992986;28;20113;-89
2023/01/10 07:16:32;;;;;;;30.40;14.45;;;;;;;9.50;75.30;100577.69;5017565;28;20084;-92
2023/01/10 07:25:01;;;;;;;29.45;15.02;;;;;;;9.51;75.91;100567.78;5133774;23;20062;-90
2023/01/10 07:28:09;;;;;;;34.65;15.10;;;;;;;9.65;75.88;100587.84;4981838;28;20098;-89
2023/01/10 07:33:53;;;;;;;32.20;14.85;;;;;;;9.83;74.81;100583.28;5080221;23;20057;-89
2023/01/10 07:36:21;;;;;;;30.55;14.70;;;;;;;9.76;74.45;100566.09;4982756;28;20046;-89
2023/01/10 07:38:58;;;;;;;31.02;14.80;;;;;;;10.11;73.37;100580.41;4993637;28;20042;-91
2023/01/10 07:41:28;;;;;;;31.58;14.88;;;;;;;9.98;72.95;100566.56;5018346;28;20104;-89
2023/01/10 07:43:59;;;;;;;26.67;13.63;;;;;;;10.29;72.13;100566.91;5005944;28;20038;-88
2023/01/10 07:52:14;;;;;;;28.42;13.68;;;;;;;11.35;67.21;100542.06;4689512;26;20063;-93
2023/01/10 07:54:47;;;;;;;29.17;13.52;;;;;;;11.76;65.99;100558.19;5012665;28;20061;-93
2023/01/10 08:16:38;;;;;;;29.95;13.00;;;;;;;11.32;65.96;100569.34;5462194;23;19920;-89
2023/01/10 08:34:01;;;;;;;28.40;13.25;;;;;;;10.71;69.18;100561.50;5333991;23;20050;-86
2023/01/10 08:36:55;;;;;;;23.35;12.75;;;;;;;10.83;68.69;100566.59;4993048;28;20046;-88
2023/01/10 09:29:24;;;;;;;24.65;12.80;;;;;;;13.73;58.87;100536.34;5160487;22;20042;-94
2023/01/10 09:35:56;;;;;;;25.85;12.13;;;;;;;13.55;60.41;100550.19;5324284;23;20073;-89
2023/01/10 09:38:32;;;;;;;28.63;12.60;;;;;;;13.53;60.18;100544.13;5004705;28;20091;-91
2023/01/10 09:47:05;;;;;;;29.20;13.02;;;;;;;13.59;59.26;100508.28;5279565;23;20087;-90
2023/01/10 10:01:36;;;;;;;19.52;11.05;;;;;;;16.63;49.96;100493.38;5110333;23;20050;-89
2023/01/10 10:04:22;;;;;;;26.85;11.38;;;;;;;18.22;45.81;100476.19;5108462;23;20054;-89
2023/01/10 10:07:12;;;;;;;21.08;11.25;;;;;;;18.67;44.87;100465.28;5015276;28;20073;-88
2023/01/10 10:09:40;;;;;;;19.73;11.10;;;;;;;18.34;45.20;100458.13;5013351;23;20047;-89
2023/01/10 10:12:43;;;;;;;20.25;11.38;;;;;;;17.73;47.42;100488.44;5289787;23;20117;-85
2023/01/10 10:15:15;;;;;;;22.70;11.50;;;;;;;17.43;47.42;100456.28;4988740;28;20118;-88
2023/01/10 10:17:52;;;;;;;21.27;10.55;;;;;;;16.23;49.77;100472.38;5041465;23;20058;-89
2023/01/10 10:20:41;;;;;;;22.40;11.20;;;;;;;15.65;50.89;100474.53;5024190;28;20134;-87
2023/01/10 10:23:22;;;;;;;24.17;11.63;;;;;;;15.19;52.88;100453.38;4967885;23;20046;-89
2023/01/10 10:26:01;;;;;;;19.95;11.15;;;;;;;15.30;52.81;100469.09;5005014;28;20027;-88
2023/01/10 10:29:03;;;;;;;21.38;11.30;;;;;;;14.17;56.17;100464.41;4987854;28;20054;-88
2023/01/10 10:32:10;;;;;;;25.40;11.90;;;;;;;13.72;57.29;100473.38;4939847;29;20035;-91
2023/01/10 10:47:56;;;;;;;34.58;11.18;;;;;;;13.37;58.82;100447.06;2206696;23;20042;-90
2023/01/10 10:50:53;;;;;;;23.52;10.13;;;;;;;14.78;54.60;100430.53;5013901;28;20038;-93
2023/01/10 11:13:07;;;;;;;20.42;9.45;;;;;;;13.49;58.87;100442.91;5040373;28;20029;-93
2023/01/10 11:29:21;;;;;;;22.38;9.25;;;;;;;12.33;62.31;100434.03;5481339;22;20141;-91
2023/01/10 11:32:14;;;;;;;25.40;9.90;;;;;;;12.22;62.52;100426.34;5033584;28;20030;-93
2023/01/10 11:48:37;;;;;;;24.87;9.37;;;;;;;12.05;63.19;100414.84;5639088;23;20043;31
2023/01/10 11:57:25;;;;;;;22.70;10.13;;;;;;;11.81;64.23;100407.69;5164625;23;20058;-90
2023/01/10 11:59:58;;;;;;;22.95;10.00;;;;;;;11.87;64.29;100409.72;5333540;23;21042;-91
2023/01/10 12:08:22;;;;;;;24.77;9.50;;;;;;;12.02;62.05;100383.69;5501898;23;20053;-91
2023/01/10 12:11:05;;;;;;;30.83;10.15;;;;;;;12.46;61.24;100428.91;5343240;23;20109;-88
2023/01/10 12:24:48;;;;;;;21.15;8.70;;;;;;;12.87;58.63;100408.88;4857455;23;20058;-90
2023/01/10 13:28:09;;;;;;;23.20;7.93;;;;;;;10.73;67.00;100373.97;5015353;28;20122;-92
2023/01/10 13:31:23;;;;;;;23.25;8.23;;;;;;;10.53;66.55;100364.56;5006858;28;20034;-92
2023/01/10 13:34:40;;;;;;;20.02;7.45;;;;;;;10.64;66.23;100406.41;5015783;28;20181;-94
2023/01/10 15:51:53;;;;;;;31.55;12.65;;;;;;;9.01;87.59;100510.22;5176389;23;20055;-92
2023/01/10 16:15:25;;;;;;;35.77;11.03;;;;;;;8.71;83.33;100467.69;5829507;22;20025;31
2023/01/10 16:21:45;;;;;;;28.70;10.30;;;;;;;8.66;83.29;100463.66;5240780;22;20049;-93
2023/01/10 16:24:36;;;;;;;31.30;11.07;;;;;;;8.50;83.88;100451.91;5013774;28;20066;-92
2023/01/10 16:30:04;;;;;;;35.30;12.68;;;;;;;8.73;83.85;100495.19;5391515;23;20108;-91
2023/01/10 16:35:26;;;;;;;27.90;12.20;;;;;;;8.71;83.12;100516.78;5088145;23;20060;-91
2023/01/10 16:37:59;;;;;;;26.17;12.00;;;;;;;8.69;83.17;100507.22;5008732;28;20053;-91
2023/01/10 16:40:50;;;;;;;30.20;11.00;;;;;;;8.72;84.39;100512.28;5051358;23;20143;-91
2023/01/10 16:51:27;;;;;;;32.30;12.02;;;;;;;8.53;84.38;100473.91;5030232;23;20046;-90
2023/01/10 16:53:53;;;;;;;29.83;11.35;;;;;;;8.46;83.63;100451.38;4968275;28;20069;-88
2023/01/10 16:56:23;;;;;;;33.63;11.73;;;;;;;8.55;83.49;100469.22;4967535;28;20075;-88
2023/01/10 16:58:55;;;;;;;27.83;11.20;;;;;;;8.73;83.39;100479.09;4976928;28;20034;-89
2023/01/10 17:02:14;;;;;;;38.53;12.98;;;;;;;8.55;83.92;100450.47;4962215;28;20070;-89
2023/01/10 17:05:04;;;;;;;29.98;10.75;;;;;;;8.80;82.16;100456.03;4990224;28;20042;-90
2023/01/10 17:07:56;;;;;;;28.77;9.88;;;;;;;8.87;82.30;100462.47;4993547;28;20026;-92
2023/01/10 17:13:37;;;;;;;28.88;10.95;;;;;;;8.90;81.59;100438.06;4988581;28;20057;-90
2023/01/10 17:16:08;;;;;;;27.83;10.57;;;;;;;8.82;81.69;100422.72;4978044;28;20042;-89
2023/01/10 17:18:40;;;;;;;27.17;10.23;;;;;;;8.88;80.27;100423.94;4969510;28;20108;-89
2023/01/10 17:21:10;;;;;;;29.60;10.80;;;;;;;9.22;80.77;100460.72;4987465;28;20039;-90
2023/01/10 17:23:40;;;;;;;28.60;10.95;;;;;;;9.20;79.96;100454.66;4989691;28;20064;-91
2023/01/10 17:26:43;;;;;;;27.58;9.75;;;;;;;9.03;79.63;100414.31;4995439;28;20041;-91
2023/01/10 17:29:34;;;;;;;24.73;10.05;;;;;;;9.25;78.80;100433.59;4994348;28;20062;-89
2023/01/10 17:32:30;;;;;;;21.45;9.38;;;;;;;9.32;79.77;100447.22;4997169;28;20037;-87
2023/01/10 17:35:43;;;;;;;21.40;9.57;;;;;;;9.24;78.89;100416.66;4994217;28;20089;-90
2023/01/10 17:38:35;;;;;;;22.50;7.88;;;;;;;9.35;78.56;100417.41;4983337;28;20038;-90
2023/01/10 17:41:22;;;;;;;23.58;8.68;;;;;;;9.39;78.29;100422.28;5022431;23;20046;-91
2023/01/10 17:44:32;;;;;;;25.45;8.90;;;;;;;9.14;78.60;100372.19;5006568;28;20118;-88
2023/01/10 17:47:20;;;;;;;21.48;9.05;;;;;;;9.30;78.21;100389.19;4995275;28;20051;-89
2023/01/10 17:49:52;;;;;;;19.98;8.30;;;;;;;9.43;77.46;100404.84;4979892;28;20050;-91
2023/01/10 17:53:11;;;;;;;20.92;8.32;;;;;;;9.45;77.60;100407.38;5056339;23;20064;-89
2023/01/10 17:56:15;;;;;;;23.58;7.88;;;;;;;9.35;76.92;100375.31;5042596;23;20070;-88
2023/01/10 17:59:04;;;;;;;24.20;9.10;;;;;;;9.59;77.04;100419.38;4961760;28;20047;-88
2023/01/10 18:01:30;;;;;;;24.75;9.07;;;;;;;9.46;77.13;100399.19;4962175;28;20114;-89
2023/01/10 18:04:19;;;;;;;20.65;8.15;;;;;;;9.51;77.05;100370.03;4974348;28;20035;-91
2023/01/10 18:06:49;;;;;;;24.15;9.48;;;;;;;9.47;77.19;100384.75;4967353;28;20486;-83
2023/01/10 18:09:59;;;;;;;24.48;9.00;;;;;;;9.26;77.88;100352.13;4962509;28;20031;-91
2023/01/10 18:13:12;;;;;;;20.70;8.00;;;;;;;9.38;77.70;100350.81;5086689;23;20081;-91
2023/01/10 18:15:59;;;;;;;25.08;8.10;;;;;;;9.32;78.01;100359.53;4982336;28;20041;-94
2023/01/10 18:18:27;;;;;;;21.20;7.88;;;;;;;9.60;77.84;100383.47;4996363;28;20135;-88
2023/01/10 18:23:58;;;;;;;17.30;6.78;;;;;;;9.72;76.76;100419.78;5048203;23;20061;-86
2023/01/10 18:27:01;;;;;;;20.23;6.85;;;;;;;9.56;77.22;100404.44;5014610;28;20042;-92
2023/01/10 18:29:27;;;;;;;23.98;7.57;;;;;;;9.63;77.31;100426.09;5006659;28;20049;-87
2023/01/10 18:31:52;;;;;;;18.58;7.55;;;;;;;9.69;77.88;100441.53;4989595;28;20030;-85
2023/01/10 18:34:19;;;;;;;23.92;8.63;;;;;;;9.65;78.49;100424.09;5008468;28;20033;-89
2023/01/10 18:36:51;;;;;;;24.10;8.20;;;;;;;9.73;78.69;100446.44;4975624;28;20058;-85
2023/01/10 18:39:17;;;;;;;20.90;7.43;;;;;;;9.74;77.84;100439.25;4977681;28;20043;-88
2023/01/10 18:41:43;;;;;;;21.10;7.38;;;;;;;9.78;78.36;100440.59;4982151;28;20049;-87
2023/01/10 18:52:02;;;;;;;18.00;7.40;;;;;;;9.69;78.07;100469.25;4269673;26;20058;-89
2023/01/10 18:54:36;;;;;;;24.85;8.52;;;;;;;9.59;77.91;100457.78;5091575;23;20058;-92
2023/01/10 18:57:31;;;;;;;28.77;9.85;;;;;;;9.50;78.25;100482.88;5164206;23;20046;-92
2023/01/10 19:20:07;;;;;;;26.70;7.90;;;;;;;9.40;81.45;100471.41;5039871;23;20034;-89
2023/01/10 19:43:24;;;;;;;20.42;7.40;;;;;;;9.44;80.64;100433.38;5685046;22;20046;-93
2023/01/10 19:49:18;;;;;;;26.05;7.20;;;;;;;9.37;81.13;100429.66;5769402;23;20234;31
2023/01/10 19:57:53;;;;;;;21.90;6.50;;;;;;;9.48;79.77;100399.88;5843157;23;20105;31
2023/01/10 20:12:23;;;;;;;15.75;4.90;;;;;;;9.40;78.93;100449.97;3279828;26;20046;-87
2023/01/10 20:15:01;;;;;;;21.50;5.20;;;;;;;9.27;78.90;100435.13;5014429;28;20070;-89
2023/01/10 20:22:44;;;;;;;15.38;4.32;;;;;;;9.43;79.46;100485.34;5009794;28;20050;-86
2023/01/10 20:25:17;;;;;;;11.65;4.10;;;;;;;9.45;79.51;100504.00;4979591;28;20038;-90
2023/01/10 20:27:46;;;;;;;14.55;4.60;;;;;;;9.46;79.85;100517.25;5017792;28;20037;-89
2023/01/10 20:30:35;;;;;;;14.57;3.47;;;;;;;9.57;80.05;100528.72;5066680;22;20097;-91
2023/01/10 20:34:04;;;;;;;19.73;4.07;;;;;;;9.61;80.55;100532.78;4986731;28;20049;-90
2023/01/10 20:36:36;;;;;;;19.13;4.72;;;;;;;9.73;80.55;100543.09;4976512;28;20052;-89
2023/01/10 20:39:05;;;;;;;17.40;4.13;;;;;;;9.78;80.62;100537.25;4977677;28;20034;-88
2023/01/10 20:41:52;;;;;;;17.88;4.70;;;;;;;9.80;80.65;100563.94;4970839;28;20094;-89
2023/01/10 20:44:25;;;;;;;12.75;4.00;;;;;;;9.75;81.14;100552.84;5004862;28;20047;-89
2023/01/10 20:47:14;;;;;;;19.02;4.95;;;;;;;9.64;81.85;100540.50;4992563;28;20037;-92
2023/01/10 20:50:14;;;;;;;16.48;4.70;;;;;;;9.88;81.94;100572.03;4999818;28;20038;-91
2023/01/10 20:55:34;;;;;;;14.98;4.07;;;;;;;9.61;82.38;100522.03;5145365;23;20101;-90
2023/01/10 20:58:23;;;;;;;22.10;4.57;;;;;;;9.68;83.04;100552.63;4978338;28;20109;-88
2023/01/10 21:00:54;;;;;;;15.70;4.40;;;;;;;9.42;83.48;100507.81;4988905;28;20046;-89
2023/01/10 21:03:21;;;;;;;25.20;4.90;;;;;;;9.50;83.55;100513.25;4977228;28;20041;-91
2023/01/10 21:05:52;;;;;;;16.50;4.50;;;;;;;9.66;83.76;100530.47;4973651;28;20053;-86
2023/01/10 21:08:25;;;;;;;15.02;4.60;;;;;;;9.55;83.47;100509.25;4972643;28;20038;-90
2023/01/10 21:10:53;;;;;;;18.10;4.53;;;;;;;9.49;83.09;100503.50;4982551;28;20491;-87
2023/01/10 21:13:22;;;;;;;24.38;4.72;;;;;;;9.42;83.11;100505.16;4989608;28;20030;-87
2023/01/10 21:16:01;;;;;;;16.58;4.78;;;;;;;9.55;84.03;100519.97;4996127;28;20049;-88
2023/01/10 21:18:49;;;;;;;18.05;4.43;;;;;;;9.39;84.53;100497.41;5081171;23;20065;-92
2023/01/10 21:39:20;;;;;;;23.08;6.05;;;;;;;9.56;83.67;100516.31;5423031;23;20301;-92
